sensor_id;sensor_type;location;lat;lon;timestamp;temperature;humidity
45785;DHT22;31489;51.404;5.474;2024-02-21T00:01:06;12.70;83.00
45785;DHT22;31489;51.404;5.474;2024-02-21T00:03:31;12.70;82.90
45785;DHT22;31489;51.404;5.474;2024-02-21T00:05:59;12.70;83.00
45785;DHT22;31489;51.404;5.474;2024-02-21T00:08:27;12.70;82.90
45785;DHT22;31489;51.404;5.474;2024-02-21T00:10:53;12.70;82.90
45785;DHT22;31489;51.404;5.474;2024-02-21T00:13:18;12.70;83.00
45785;DHT22;31489;51.404;5.474;2024-02-21T00:15:44;12.60;82.80
45785;DHT22;31489;51.404;5.474;2024-02-21T00:18:10;12.70;82.90
45785;DHT22;31489;51.404;5.474;2024-02-21T00:20:36;12.70;83.00
45785;DHT22;31489;51.404;5.474;2024-02-21T00:23:02;12.70;82.90
45785;DHT22;31489;51.404;5.474;2024-02-21T00:25:27;12.70;83.00
45785;DHT22;31489;51.404;5.474;2024-02-21T00:27:53;12.70;83.00
45785;DHT22;31489;51.404;5.474;2024-02-21T00:30:19;12.70;83.00
45785;DHT22;31489;51.404;5.474;2024-02-21T00:32:44;12.70;83.00
45785;DHT22;31489;51.404;5.474;2024-02-21T00:35:10;12.70;82.90
45785;DHT22;31489;51.404;5.474;2024-02-21T00:37:36;12.70;82.90
45785;DHT22;31489;51.404;5.474;2024-02-21T00:40:01;12.70;82.80
45785;DHT22;31489;51.404;5.474;2024-02-21T00:42:27;12.70;83.40
45785;DHT22;31489;51.404;5.474;2024-02-21T00:44:53;12.70;82.80
45785;DHT22;31489;51.404;5.474;2024-02-21T00:47:18;12.70;82.80
45785;DHT22;31489;51.404;5.474;2024-02-21T00:49:44;12.70;82.70
45785;DHT22;31489;51.404;5.474;2024-02-21T00:52:10;12.70;83.20
45785;DHT22;31489;51.404;5.474;2024-02-21T00:54:36;12.70;82.50
45785;DHT22;31489;51.404;5.474;2024-02-21T00:57:01;12.70;82.40
45785;DHT22;31489;51.404;5.474;2024-02-21T00:59:30;12.60;82.30
45785;DHT22;31489;51.404;5.474;2024-02-21T01:01:58;12.60;82.20
45785;DHT22;31489;51.404;5.474;2024-02-21T01:04:23;12.60;82.30
45785;DHT22;31489;51.404;5.474;2024-02-21T01:06:50;12.60;82.30
45785;DHT22;31489;51.404;5.474;2024-02-21T01:09:15;12.50;82.30
45785;DHT22;31489;51.404;5.474;2024-02-21T01:11:41;12.50;82.30
45785;DHT22;31489;51.404;5.474;2024-02-21T01:14:06;12.50;82.30
45785;DHT22;31489;51.404;5.474;2024-02-21T01:16:32;12.50;82.30
45785;DHT22;31489;51.404;5.474;2024-02-21T01:18:58;12.50;82.40
45785;DHT22;31489;51.404;5.474;2024-02-21T01:21:23;12.50;82.40
45785;DHT22;31489;51.404;5.474;2024-02-21T01:23:49;12.50;82.40
45785;DHT22;31489;51.404;5.474;2024-02-21T01:26:15;12.50;82.50
45785;DHT22;31489;51.404;5.474;2024-02-21T01:28:41;12.50;82.50
45785;DHT22;31489;51.404;5.474;2024-02-21T01:31:06;12.40;82.50
45785;DHT22;31489;51.404;5.474;2024-02-21T01:33:32;12.50;82.50
45785;DHT22;31489;51.404;5.474;2024-02-21T01:36:04;12.40;82.50
45785;DHT22;31489;51.404;5.474;2024-02-21T01:38:32;12.40;82.40
45785;DHT22;31489;51.404;5.474;2024-02-21T01:40:57;12.50;82.60
45785;DHT22;31489;51.404;5.474;2024-02-21T01:43:23;12.40;82.50
45785;DHT22;31489;51.404;5.474;2024-02-21T01:45:50;12.40;82.50
45785;DHT22;31489;51.404;5.474;2024-02-21T01:48:20;12.40;82.50
45785;DHT22;31489;51.404;5.474;2024-02-21T01:50:47;12.40;82.50
45785;DHT22;31489;51.404;5.474;2024-02-21T01:53:19;12.40;82.50
45785;DHT22;31489;51.404;5.474;2024-02-21T01:55:49;12.40;82.50
45785;DHT22;31489;51.404;5.474;2024-02-21T01:58:15;12.40;82.40
45785;DHT22;31489;51.404;5.474;2024-02-21T02:00:45;12.40;82.50
45785;DHT22;31489;51.404;5.474;2024-02-21T02:03:14;12.40;82.40
45785;DHT22;31489;51.404;5.474;2024-02-21T02:05:45;12.40;82.50
45785;DHT22;31489;51.404;5.474;2024-02-21T02:08:15;12.40;83.10
45785;DHT22;31489;51.404;5.474;2024-02-21T02:10:42;12.40;82.40
45785;DHT22;31489;51.404;5.474;2024-02-21T02:13:08;12.40;82.50
45785;DHT22;31489;51.404;5.474;2024-02-21T02:15:44;12.40;82.50
45785;DHT22;31489;51.404;5.474;2024-02-21T02:18:10;12.40;82.30
45785;DHT22;31489;51.404;5.474;2024-02-21T02:20:36;12.40;82.40
45785;DHT22;31489;51.404;5.474;2024-02-21T02:25:38;12.40;82.10
45785;DHT22;31489;51.404;5.474;2024-02-21T02:28:06;12.40;82.50
45785;DHT22;31489;51.404;5.474;2024-02-21T02:30:35;12.40;82.30
45785;DHT22;31489;51.404;5.474;2024-02-21T02:33:05;12.40;82.20
45785;DHT22;31489;51.404;5.474;2024-02-21T02:35:31;12.30;82.20
45785;DHT22;31489;51.404;5.474;2024-02-21T02:37:57;12.40;82.30
45785;DHT22;31489;51.404;5.474;2024-02-21T02:40:23;12.40;82.30
45785;DHT22;31489;51.404;5.474;2024-02-21T02:42:49;12.40;82.30
45785;DHT22;31489;51.404;5.474;2024-02-21T02:45:15;12.40;82.30
45785;DHT22;31489;51.404;5.474;2024-02-21T02:47:41;12.40;82.30
45785;DHT22;31489;51.404;5.474;2024-02-21T02:50:07;12.30;82.20
45785;DHT22;31489;51.404;5.474;2024-02-21T02:52:42;12.30;82.30
45785;DHT22;31489;51.404;5.474;2024-02-21T02:55:08;12.30;82.20
45785;DHT22;31489;51.404;5.474;2024-02-21T02:57:33;12.30;82.30
45785;DHT22;31489;51.404;5.474;2024-02-21T03:00:02;12.30;82.10
45785;DHT22;31489;51.404;5.474;2024-02-21T03:02:29;12.30;82.10
45785;DHT22;31489;51.404;5.474;2024-02-21T03:04:55;12.30;82.20
45785;DHT22;31489;51.404;5.474;2024-02-21T03:07:21;12.30;82.20
45785;DHT22;31489;51.404;5.474;2024-02-21T03:09:46;12.30;82.10
45785;DHT22;31489;51.404;5.474;2024-02-21T03:12:12;12.30;82.00
45785;DHT22;31489;51.404;5.474;2024-02-21T03:14:40;12.30;82.00
45785;DHT22;31489;51.404;5.474;2024-02-21T03:17:06;12.30;81.80
45785;DHT22;31489;51.404;5.474;2024-02-21T03:19:31;12.30;82.10
45785;DHT22;31489;51.404;5.474;2024-02-21T03:21:57;12.30;82.10
45785;DHT22;31489;51.404;5.474;2024-02-21T03:24:22;12.30;82.00
45785;DHT22;31489;51.404;5.474;2024-02-21T03:26:48;12.30;82.60
45785;DHT22;31489;51.404;5.474;2024-02-21T03:29:15;12.30;81.70
45785;DHT22;31489;51.404;5.474;2024-02-21T03:31:41;12.30;81.80
45785;DHT22;31489;51.404;5.474;2024-02-21T03:34:07;12.30;81.90
45785;DHT22;31489;51.404;5.474;2024-02-21T03:36:33;12.30;81.90
45785;DHT22;31489;51.404;5.474;2024-02-21T03:38:59;12.30;82.00
45785;DHT22;31489;51.404;5.474;2024-02-21T03:41:25;12.30;82.00
45785;DHT22;31489;51.404;5.474;2024-02-21T03:43:50;12.40;82.20
45785;DHT22;31489;51.404;5.474;2024-02-21T03:46:16;12.30;82.20
45785;DHT22;31489;51.404;5.474;2024-02-21T03:48:42;12.40;82.30
45785;DHT22;31489;51.404;5.474;2024-02-21T03:51:08;12.40;82.30
45785;DHT22;31489;51.404;5.474;2024-02-21T03:53:33;12.30;82.10
45785;DHT22;31489;51.404;5.474;2024-02-21T03:56:03;12.40;82.30
45785;DHT22;31489;51.404;5.474;2024-02-21T03:58:30;12.40;82.20
45785;DHT22;31489;51.404;5.474;2024-02-21T04:00:56;12.40;82.30
45785;DHT22;31489;51.404;5.474;2024-02-21T04:03:22;12.30;82.20
45785;DHT22;31489;51.404;5.474;2024-02-21T04:05:47;12.30;82.30
45785;DHT22;31489;51.404;5.474;2024-02-21T04:08:13;12.30;82.30
45785;DHT22;31489;51.404;5.474;2024-02-21T04:10:39;12.30;82.30
45785;DHT22;31489;51.404;5.474;2024-02-21T04:13:06;12.30;82.40
45785;DHT22;31489;51.404;5.474;2024-02-21T04:15:35;12.30;82.40
45785;DHT22;31489;51.404;5.474;2024-02-21T04:18:01;12.30;82.40
45785;DHT22;31489;51.404;5.474;2024-02-21T04:20:28;12.30;82.40
45785;DHT22;31489;51.404;5.474;2024-02-21T04:22:54;12.20;82.40
45785;DHT22;31489;51.404;5.474;2024-02-21T04:25:20;12.20;82.50
45785;DHT22;31489;51.404;5.474;2024-02-21T04:27:46;12.20;82.60
45785;DHT22;31489;51.404;5.474;2024-02-21T04:30:12;12.20;82.70
45785;DHT22;31489;51.404;5.474;2024-02-21T04:32:38;12.20;82.70
45785;DHT22;31489;51.404;5.474;2024-02-21T04:35:04;12.20;82.70
45785;DHT22;31489;51.404;5.474;2024-02-21T04:37:30;12.20;82.60
45785;DHT22;31489;51.404;5.474;2024-02-21T04:39:56;12.30;82.70
45785;DHT22;31489;51.404;5.474;2024-02-21T04:42:22;12.30;82.80
45785;DHT22;31489;51.404;5.474;2024-02-21T04:44:47;12.30;82.70
45785;DHT22;31489;51.404;5.474;2024-02-21T04:47:13;12.20;82.60
45785;DHT22;31489;51.404;5.474;2024-02-21T04:49:39;12.30;82.70
45785;DHT22;31489;51.404;5.474;2024-02-21T04:52:04;12.20;82.80
45785;DHT22;31489;51.404;5.474;2024-02-21T04:54:30;12.30;82.90
45785;DHT22;31489;51.404;5.474;2024-02-21T04:56:56;12.30;82.90
45785;DHT22;31489;51.404;5.474;2024-02-21T04:59:21;12.30;82.90
45785;DHT22;31489;51.404;5.474;2024-02-21T05:01:47;12.30;83.50
45785;DHT22;31489;51.404;5.474;2024-02-21T05:04:13;12.30;82.90
45785;DHT22;31489;51.404;5.474;2024-02-21T05:06:39;12.30;83.00
45785;DHT22;31489;51.404;5.474;2024-02-21T05:09:06;12.30;83.00
45785;DHT22;31489;51.404;5.474;2024-02-21T05:11:34;12.30;83.00
45785;DHT22;31489;51.404;5.474;2024-02-21T05:14:00;12.30;83.00
45785;DHT22;31489;51.404;5.474;2024-02-21T05:16:26;12.30;83.00
45785;DHT22;31489;51.404;5.474;2024-02-21T05:18:51;12.30;82.90
45785;DHT22;31489;51.404;5.474;2024-02-21T05:21:17;12.30;82.90
45785;DHT22;31489;51.404;5.474;2024-02-21T05:23:43;12.30;82.80
45785;DHT22;31489;51.404;5.474;2024-02-21T05:26:08;12.30;82.80
45785;DHT22;31489;51.404;5.474;2024-02-21T05:28:34;12.30;82.80
45785;DHT22;31489;51.404;5.474;2024-02-21T05:31:00;12.20;82.70
45785;DHT22;31489;51.404;5.474;2024-02-21T05:33:26;12.30;82.90
45785;DHT22;31489;51.404;5.474;2024-02-21T05:35:52;12.30;82.90
45785;DHT22;31489;51.404;5.474;2024-02-21T05:38:42;12.30;82.90
45785;DHT22;31489;51.404;5.474;2024-02-21T05:41:07;12.30;82.90
45785;DHT22;31489;51.404;5.474;2024-02-21T05:43:33;12.30;83.50
45785;DHT22;31489;51.404;5.474;2024-02-21T05:45:59;12.30;82.90
45785;DHT22;31489;51.404;5.474;2024-02-21T05:48:28;12.30;82.90
45785;DHT22;31489;51.404;5.474;2024-02-21T05:50:53;12.30;82.90
45785;DHT22;31489;51.404;5.474;2024-02-21T05:53:19;12.30;82.90
45785;DHT22;31489;51.404;5.474;2024-02-21T05:55:45;12.30;82.90
45785;DHT22;31489;51.404;5.474;2024-02-21T05:58:10;12.30;82.80
45785;DHT22;31489;51.404;5.474;2024-02-21T06:00:39;12.30;82.80
45785;DHT22;31489;51.404;5.474;2024-02-21T06:03:04;12.30;82.80
45785;DHT22;31489;51.404;5.474;2024-02-21T06:05:37;12.30;82.80
45785;DHT22;31489;51.404;5.474;2024-02-21T06:08:04;12.30;82.50
45785;DHT22;31489;51.404;5.474;2024-02-21T06:10:30;12.30;82.70
45785;DHT22;31489;51.404;5.474;2024-02-21T06:12:57;12.30;82.80
45785;DHT22;31489;51.404;5.474;2024-02-21T06:15:25;12.30;82.80
45785;DHT22;31489;51.404;5.474;2024-02-21T06:17:51;12.30;82.70
45785;DHT22;31489;51.404;5.474;2024-02-21T06:20:16;12.30;82.60
45785;DHT22;31489;51.404;5.474;2024-02-21T06:22:42;12.30;82.60
45785;DHT22;31489;51.404;5.474;2024-02-21T06:25:08;12.30;82.60
45785;DHT22;31489;51.404;5.474;2024-02-21T06:27:34;12.30;82.60
45785;DHT22;31489;51.404;5.474;2024-02-21T06:30:02;12.30;82.60
45785;DHT22;31489;51.404;5.474;2024-02-21T06:32:28;12.30;82.30
45785;DHT22;31489;51.404;5.474;2024-02-21T06:34:54;12.30;82.60
45785;DHT22;31489;51.404;5.474;2024-02-21T06:37:20;12.30;82.60
45785;DHT22;31489;51.404;5.474;2024-02-21T06:39:45;12.30;82.50
45785;DHT22;31489;51.404;5.474;2024-02-21T06:42:11;12.20;82.60
45785;DHT22;31489;51.404;5.474;2024-02-21T06:44:37;12.30;82.70
45785;DHT22;31489;51.404;5.474;2024-02-21T06:47:06;12.20;82.70
45785;DHT22;31489;51.404;5.474;2024-02-21T06:49:34;12.20;82.80
45785;DHT22;31489;51.404;5.474;2024-02-21T06:52:04;12.20;82.80
45785;DHT22;31489;51.404;5.474;2024-02-21T06:54:30;12.20;82.80
45785;DHT22;31489;51.404;5.474;2024-02-21T06:56:56;12.20;82.80
45785;DHT22;31489;51.404;5.474;2024-02-21T06:59:21;12.20;82.80
45785;DHT22;31489;51.404;5.474;2024-02-21T07:01:49;12.20;82.90
45785;DHT22;31489;51.404;5.474;2024-02-21T07:04:14;12.20;82.80
45785;DHT22;31489;51.404;5.474;2024-02-21T07:06:40;12.20;82.90
45785;DHT22;31489;51.404;5.474;2024-02-21T07:09:06;12.20;82.90
45785;DHT22;31489;51.404;5.474;2024-02-21T07:11:32;12.20;82.90
45785;DHT22;31489;51.404;5.474;2024-02-21T07:13:57;12.20;82.80
45785;DHT22;31489;51.404;5.474;2024-02-21T07:16:23;12.20;82.90
45785;DHT22;31489;51.404;5.474;2024-02-21T07:18:48;12.20;82.90
45785;DHT22;31489;51.404;5.474;2024-02-21T07:21:14;12.20;83.00
45785;DHT22;31489;51.404;5.474;2024-02-21T07:23:43;12.20;83.00
45785;DHT22;31489;51.404;5.474;2024-02-21T07:26:09;12.20;82.80
45785;DHT22;31489;51.404;5.474;2024-02-21T07:28:35;12.20;82.90
45785;DHT22;31489;51.404;5.474;2024-02-21T07:31:01;12.20;83.00
45785;DHT22;31489;51.404;5.474;2024-02-21T07:33:26;12.20;82.80
45785;DHT22;31489;51.404;5.474;2024-02-21T07:35:52;12.20;82.80
45785;DHT22;31489;51.404;5.474;2024-02-21T07:38:17;12.20;82.70
45785;DHT22;31489;51.404;5.474;2024-02-21T07:40:46;12.20;82.80
45785;DHT22;31489;51.404;5.474;2024-02-21T07:43:12;12.20;82.60
45785;DHT22;31489;51.404;5.474;2024-02-21T07:45:38;12.20;82.70
45785;DHT22;31489;51.404;5.474;2024-02-21T07:48:05;12.20;82.70
45785;DHT22;31489;51.404;5.474;2024-02-21T07:50:31;12.20;82.70
45785;DHT22;31489;51.404;5.474;2024-02-21T07:52:57;12.30;82.80
45785;DHT22;31489;51.404;5.474;2024-02-21T07:55:22;12.30;82.90
45785;DHT22;31489;51.404;5.474;2024-02-21T07:57:48;12.30;82.90
45785;DHT22;31489;51.404;5.474;2024-02-21T08:00:15;12.30;82.80
45785;DHT22;31489;51.404;5.474;2024-02-21T08:02:46;12.30;82.80
45785;DHT22;31489;51.404;5.474;2024-02-21T08:05:11;12.30;82.70
45785;DHT22;31489;51.404;5.474;2024-02-21T08:07:38;12.40;82.80
45785;DHT22;31489;51.404;5.474;2024-02-21T08:10:04;12.40;82.60
45785;DHT22;31489;51.404;5.474;2024-02-21T08:12:32;12.40;82.50
45785;DHT22;31489;51.404;5.474;2024-02-21T08:14:58;12.40;82.60
45785;DHT22;31489;51.404;5.474;2024-02-21T08:17:23;12.40;82.60
45785;DHT22;31489;51.404;5.474;2024-02-21T08:19:49;12.40;82.60
45785;DHT22;31489;51.404;5.474;2024-02-21T08:22:15;12.40;82.60
45785;DHT22;31489;51.404;5.474;2024-02-21T08:24:41;12.40;82.60
45785;DHT22;31489;51.404;5.474;2024-02-21T08:27:07;12.40;82.50
45785;DHT22;31489;51.404;5.474;2024-02-21T08:29:33;12.50;82.60
45785;DHT22;31489;51.404;5.474;2024-02-21T08:31:58;12.40;82.50
45785;DHT22;31489;51.404;5.474;2024-02-21T08:34:24;12.40;82.50
45785;DHT22;31489;51.404;5.474;2024-02-21T08:36:50;12.40;82.60
45785;DHT22;31489;51.404;5.474;2024-02-21T08:39:16;12.40;82.50
45785;DHT22;31489;51.404;5.474;2024-02-21T08:41:42;12.40;82.70
45785;DHT22;31489;51.404;5.474;2024-02-21T08:44:08;12.40;82.90
45785;DHT22;31489;51.404;5.474;2024-02-21T08:46:34;12.40;82.90
45785;DHT22;31489;51.404;5.474;2024-02-21T08:49:02;12.50;83.00
45785;DHT22;31489;51.404;5.474;2024-02-21T08:51:28;12.40;82.90
45785;DHT22;31489;51.404;5.474;2024-02-21T08:53:54;12.40;83.20
45785;DHT22;31489;51.404;5.474;2024-02-21T08:56:20;12.40;83.30
45785;DHT22;31489;51.404;5.474;2024-02-21T08:58:46;12.40;83.60
45785;DHT22;31489;51.404;5.474;2024-02-21T09:01:12;12.40;83.80
45785;DHT22;31489;51.404;5.474;2024-02-21T09:03:38;12.40;83.90
45785;DHT22;31489;51.404;5.474;2024-02-21T09:06:05;12.40;83.90
45785;DHT22;31489;51.404;5.474;2024-02-21T09:08:31;12.40;83.90
45785;DHT22;31489;51.404;5.474;2024-02-21T09:10:57;12.30;84.00
45785;DHT22;31489;51.404;5.474;2024-02-21T09:13:23;12.30;84.00
45785;DHT22;31489;51.404;5.474;2024-02-21T09:15:49;12.30;84.00
45785;DHT22;31489;51.404;5.474;2024-02-21T09:18:15;12.30;84.00
45785;DHT22;31489;51.404;5.474;2024-02-21T09:20:42;12.30;84.10
45785;DHT22;31489;51.404;5.474;2024-02-21T09:23:08;12.30;84.10
45785;DHT22;31489;51.404;5.474;2024-02-21T09:25:33;12.30;84.10
45785;DHT22;31489;51.404;5.474;2024-02-21T09:28:00;12.30;84.20
45785;DHT22;31489;51.404;5.474;2024-02-21T09:30:26;12.30;84.20
45785;DHT22;31489;51.404;5.474;2024-02-21T09:32:52;12.30;84.10
45785;DHT22;31489;51.404;5.474;2024-02-21T09:35:18;12.30;84.00
45785;DHT22;31489;51.404;5.474;2024-02-21T09:37:47;12.30;84.00
45785;DHT22;31489;51.404;5.474;2024-02-21T09:40:15;12.30;83.70
45785;DHT22;31489;51.404;5.474;2024-02-21T09:42:41;12.30;83.70
45785;DHT22;31489;51.404;5.474;2024-02-21T09:45:12;12.30;84.30
45785;DHT22;31489;51.404;5.474;2024-02-21T09:48:12;12.30;83.70
45785;DHT22;31489;51.404;5.474;2024-02-21T09:50:40;12.40;83.40
45785;DHT22;31489;51.404;5.474;2024-02-21T09:53:06;12.40;83.80
45785;DHT22;31489;51.404;5.474;2024-02-21T09:55:33;12.40;83.70
45785;DHT22;31489;51.404;5.474;2024-02-21T09:58:01;12.40;83.70
45785;DHT22;31489;51.404;5.474;2024-02-21T10:00:27;12.40;83.50
45785;DHT22;31489;51.404;5.474;2024-02-21T10:02:53;12.50;83.40
45785;DHT22;31489;51.404;5.474;2024-02-21T10:05:19;12.50;83.30
45785;DHT22;31489;51.404;5.474;2024-02-21T10:07:46;12.50;83.40
45785;DHT22;31489;51.404;5.474;2024-02-21T10:10:12;12.50;83.20
45785;DHT22;31489;51.404;5.474;2024-02-21T10:12:48;12.60;83.00
45785;DHT22;31489;51.404;5.474;2024-02-21T10:15:20;12.60;82.30
45785;DHT22;31489;51.404;5.474;2024-02-21T10:18:03;12.60;82.30
45785;DHT22;31489;51.404;5.474;2024-02-21T10:20:29;12.60;82.20
45785;DHT22;31489;51.404;5.474;2024-02-21T10:23:02;12.70;82.60
45785;DHT22;31489;51.404;5.474;2024-02-21T10:25:31;12.70;82.30
45785;DHT22;31489;51.404;5.474;2024-02-21T10:27:57;12.80;82.60
45785;DHT22;31489;51.404;5.474;2024-02-21T10:30:23;12.80;82.20
45785;DHT22;31489;51.404;5.474;2024-02-21T10:32:53;12.80;82.20
45785;DHT22;31489;51.404;5.474;2024-02-21T10:35:32;12.90;81.90
45785;DHT22;31489;51.404;5.474;2024-02-21T10:38:01;12.90;81.30
45785;DHT22;31489;51.404;5.474;2024-02-21T10:40:30;12.90;82.10
45785;DHT22;31489;51.404;5.474;2024-02-21T10:43:02;12.90;81.80
45785;DHT22;31489;51.404;5.474;2024-02-21T10:45:30;13.00;81.60
45785;DHT22;31489;51.404;5.474;2024-02-21T10:48:06;13.00;81.70
45785;DHT22;31489;51.404;5.474;2024-02-21T10:50:42;13.00;81.20
45785;DHT22;31489;51.404;5.474;2024-02-21T10:53:51;13.10;81.30
45785;DHT22;31489;51.404;5.474;2024-02-21T10:56:33;13.10;80.40
45785;DHT22;31489;51.404;5.474;2024-02-21T10:59:06;13.20;81.20
45785;DHT22;31489;51.404;5.474;2024-02-21T11:01:32;13.20;81.10
45785;DHT22;31489;51.404;5.474;2024-02-21T11:04:04;13.30;81.10
45785;DHT22;31489;51.404;5.474;2024-02-21T11:06:31;13.30;80.80
45785;DHT22;31489;51.404;5.474;2024-02-21T11:09:05;13.30;80.60
45785;DHT22;31489;51.404;5.474;2024-02-21T11:11:41;13.30;80.10
45785;DHT22;31489;51.404;5.474;2024-02-21T11:14:07;13.30;80.20
45785;DHT22;31489;51.404;5.474;2024-02-21T11:16:50;13.40;80.30
45785;DHT22;31489;51.404;5.474;2024-02-21T11:19:29;13.40;79.20
45785;DHT22;31489;51.404;5.474;2024-02-21T11:21:57;13.40;80.20
45785;DHT22;31489;51.404;5.474;2024-02-21T11:24:31;13.40;80.20
45785;DHT22;31489;51.404;5.474;2024-02-21T11:27:20;13.40;80.10
45785;DHT22;31489;51.404;5.474;2024-02-21T11:29:54;13.40;79.40
45785;DHT22;31489;51.404;5.474;2024-02-21T11:32:21;13.40;80.00
45785;DHT22;31489;51.404;5.474;2024-02-21T11:35:18;13.40;80.60
45785;DHT22;31489;51.404;5.474;2024-02-21T11:37:47;13.50;79.70
45785;DHT22;31489;51.404;5.474;2024-02-21T11:40:12;13.50;80.50
45785;DHT22;31489;51.404;5.474;2024-02-21T11:42:38;13.60;80.60
45785;DHT22;31489;51.404;5.474;2024-02-21T11:45:04;13.70;80.10
45785;DHT22;31489;51.404;5.474;2024-02-21T11:47:30;13.80;79.70
45785;DHT22;31489;51.404;5.474;2024-02-21T11:49:56;13.90;79.40
45785;DHT22;31489;51.404;5.474;2024-02-21T11:52:22;13.90;79.40
45785;DHT22;31489;51.404;5.474;2024-02-21T11:54:54;13.90;79.20
45785;DHT22;31489;51.404;5.474;2024-02-21T11:57:27;13.90;78.70
45785;DHT22;31489;51.404;5.474;2024-02-21T11:59:53;13.90;79.00
45785;DHT22;31489;51.404;5.474;2024-02-21T12:02:20;14.00;79.70
45785;DHT22;31489;51.404;5.474;2024-02-21T12:04:46;14.00;79.10
45785;DHT22;31489;51.404;5.474;2024-02-21T12:07:11;14.00;79.60
45785;DHT22;31489;51.404;5.474;2024-02-21T12:09:37;14.10;79.30
45785;DHT22;31489;51.404;5.474;2024-02-21T12:12:04;14.20;79.20
45785;DHT22;31489;51.404;5.474;2024-02-21T12:14:31;14.30;79.20
45785;DHT22;31489;51.404;5.474;2024-02-21T12:17:01;14.40;78.70
45785;DHT22;31489;51.404;5.474;2024-02-21T12:19:33;14.50;78.70
45785;DHT22;31489;51.404;5.474;2024-02-21T12:22:02;14.60;77.80
45785;DHT22;31489;51.404;5.474;2024-02-21T12:24:31;14.60;77.70
45785;DHT22;31489;51.404;5.474;2024-02-21T12:26:57;14.70;78.00
45785;DHT22;31489;51.404;5.474;2024-02-21T12:29:24;14.80;77.60
45785;DHT22;31489;51.404;5.474;2024-02-21T12:31:50;14.80;76.90
45785;DHT22;31489;51.404;5.474;2024-02-21T12:34:16;14.80;77.10
45785;DHT22;31489;51.404;5.474;2024-02-21T12:36:43;14.90;76.70
45785;DHT22;31489;51.404;5.474;2024-02-21T12:39:13;14.90;76.50
45785;DHT22;31489;51.404;5.474;2024-02-21T12:41:39;14.90;76.00
45785;DHT22;31489;51.404;5.474;2024-02-21T12:44:06;14.80;76.30
45785;DHT22;31489;51.404;5.474;2024-02-21T12:46:33;14.80;76.20
45785;DHT22;31489;51.404;5.474;2024-02-21T12:48:59;14.80;75.70
45785;DHT22;31489;51.404;5.474;2024-02-21T12:51:25;14.80;76.10
45785;DHT22;31489;51.404;5.474;2024-02-21T12:53:51;14.80;76.10
45785;DHT22;31489;51.404;5.474;2024-02-21T12:56:16;14.70;76.00
45785;DHT22;31489;51.404;5.474;2024-02-21T12:58:42;14.70;76.50
45785;DHT22;31489;51.404;5.474;2024-02-21T13:01:08;14.60;76.00
45785;DHT22;31489;51.404;5.474;2024-02-21T13:03:34;14.60;75.90
45785;DHT22;31489;51.404;5.474;2024-02-21T13:06:00;14.60;75.90
45785;DHT22;31489;51.404;5.474;2024-02-21T13:08:25;14.50;76.00
45785;DHT22;31489;51.404;5.474;2024-02-21T13:10:51;14.50;76.00
45785;DHT22;31489;51.404;5.474;2024-02-21T13:13:17;14.50;76.00
45785;DHT22;31489;51.404;5.474;2024-02-21T13:15:42;14.40;76.00
45785;DHT22;31489;51.404;5.474;2024-02-21T13:18:12;14.40;76.10
45785;DHT22;31489;51.404;5.474;2024-02-21T13:20:38;14.40;76.00
45785;DHT22;31489;51.404;5.474;2024-02-21T13:23:03;14.40;76.00
45785;DHT22;31489;51.404;5.474;2024-02-21T13:25:32;14.40;75.90
45785;DHT22;31489;51.404;5.474;2024-02-21T13:27:58;14.30;75.90
45785;DHT22;31489;51.404;5.474;2024-02-21T13:30:23;14.30;76.30
45785;DHT22;31489;51.404;5.474;2024-02-21T13:32:51;14.30;76.40
45785;DHT22;31489;51.404;5.474;2024-02-21T13:35:16;14.30;76.30
45785;DHT22;31489;51.404;5.474;2024-02-21T13:37:42;14.30;76.10
45785;DHT22;31489;51.404;5.474;2024-02-21T13:40:09;14.30;76.10
45785;DHT22;31489;51.404;5.474;2024-02-21T13:42:35;14.30;76.00
45785;DHT22;31489;51.404;5.474;2024-02-21T13:45:01;14.20;76.10
45785;DHT22;31489;51.404;5.474;2024-02-21T13:47:27;14.20;76.10
45785;DHT22;31489;51.404;5.474;2024-02-21T13:49:53;14.20;76.00
45785;DHT22;31489;51.404;5.474;2024-02-21T13:52:18;14.20;75.90
45785;DHT22;31489;51.404;5.474;2024-02-21T13:54:47;14.20;76.00
45785;DHT22;31489;51.404;5.474;2024-02-21T13:57:15;14.30;76.10
45785;DHT22;31489;51.404;5.474;2024-02-21T13:59:41;14.20;76.10
45785;DHT22;31489;51.404;5.474;2024-02-21T14:02:08;14.20;75.90
45785;DHT22;31489;51.404;5.474;2024-02-21T14:04:34;14.20;75.50
45785;DHT22;31489;51.404;5.474;2024-02-21T14:07:03;14.20;75.90
45785;DHT22;31489;51.404;5.474;2024-02-21T14:09:29;14.20;76.00
45785;DHT22;31489;51.404;5.474;2024-02-21T14:12:00;14.20;76.00
45785;DHT22;31489;51.404;5.474;2024-02-21T14:14:26;14.20;75.60
45785;DHT22;31489;51.404;5.474;2024-02-21T14:16:51;14.20;75.80
45785;DHT22;31489;51.404;5.474;2024-02-21T14:19:17;14.20;76.00
45785;DHT22;31489;51.404;5.474;2024-02-21T14:21:44;14.20;76.00
45785;DHT22;31489;51.404;5.474;2024-02-21T14:24:10;14.20;75.80
45785;DHT22;31489;51.404;5.474;2024-02-21T14:26:37;14.20;75.80
45785;DHT22;31489;51.404;5.474;2024-02-21T14:29:03;14.20;76.00
45785;DHT22;31489;51.404;5.474;2024-02-21T14:31:31;14.20;76.00
45785;DHT22;31489;51.404;5.474;2024-02-21T14:33:57;14.20;75.50
45785;DHT22;31489;51.404;5.474;2024-02-21T14:36:23;14.10;76.00
45785;DHT22;31489;51.404;5.474;2024-02-21T14:38:52;14.20;76.00
45785;DHT22;31489;51.404;5.474;2024-02-21T14:41:20;14.10;76.10
45785;DHT22;31489;51.404;5.474;2024-02-21T14:43:46;14.10;75.90
45785;DHT22;31489;51.404;5.474;2024-02-21T14:46:12;14.10;76.30
45785;DHT22;31489;51.404;5.474;2024-02-21T14:48:38;14.10;76.40
45785;DHT22;31489;51.404;5.474;2024-02-21T14:51:11;14.00;77.10
45785;DHT22;31489;51.404;5.474;2024-02-21T14:53:37;14.00;76.80
45785;DHT22;31489;51.404;5.474;2024-02-21T14:56:12;14.00;76.70
45785;DHT22;31489;51.404;5.474;2024-02-21T14:58:38;13.90;76.80
45785;DHT22;31489;51.404;5.474;2024-02-21T15:01:04;13.90;77.00
45785;DHT22;31489;51.404;5.474;2024-02-21T15:03:30;13.90;77.20
45785;DHT22;31489;51.404;5.474;2024-02-21T15:05:55;13.80;77.30
45785;DHT22;31489;51.404;5.474;2024-02-21T15:08:21;13.80;77.60
45785;DHT22;31489;51.404;5.474;2024-02-21T15:10:46;13.70;77.40
45785;DHT22;31489;51.404;5.474;2024-02-21T15:13:12;13.70;77.70
45785;DHT22;31489;51.404;5.474;2024-02-21T15:15:38;13.60;78.00
45785;DHT22;31489;51.404;5.474;2024-02-21T15:18:03;13.60;78.00
45785;DHT22;31489;51.404;5.474;2024-02-21T15:20:29;13.50;78.10
45785;DHT22;31489;51.404;5.474;2024-02-21T15:22:55;13.50;78.50
45785;DHT22;31489;51.404;5.474;2024-02-21T15:25:23;13.40;78.40
45785;DHT22;31489;51.404;5.474;2024-02-21T15:27:50;13.40;79.00
45785;DHT22;31489;51.404;5.474;2024-02-21T15:30:16;13.40;79.20
45785;DHT22;31489;51.404;5.474;2024-02-21T15:32:42;13.30;79.40